Shenango, Pennsylvania
Current Conditions -  °F | °C
As of 6:53 PM on Friday 28 Nov 2014 (Local Time) from KGKJ Reporting Station
Scattered Clouds Scattered Clouds  
Wind Chill: 22°   Ceiling: Unl
Heat Index: 22°   Visibility: 10mi
Dew Point: 13°   Wind: 3mph
Humidity: 68%   Direction: NA
Pressure: 30.18"   Gusts: NA
Location:  41.4051°N, 80.3648°W
Report Text: KGKJ 282353Z AUTO VRB03KT 10SM FEW031 SCT075 SCT090 M06/M11 A3018 RMK AO2 SLP241 60000 T10561106 11044 21056 56005 TSNO
Loading
Personal Weather Stations






























Interactive Weather Map New forecast layout! Learn more

10-Day Weather Forecast

Advertisements
Track Severe Weather on mobile